sensor_id;sensor_type;location;lat;lon;timestamp;temperature;humidity
60033;DHT22;45905;50.570;10.428;2023-02-15T00:00:07;0.30;99.90
60033;DHT22;45905;50.570;10.428;2023-02-15T00:02:37;0.30;99.90
60033;DHT22;45905;50.570;10.428;2023-02-15T00:05:05;0.30;99.90
60033;DHT22;45905;50.570;10.428;2023-02-15T00:07:34;0.20;99.90
60033;DHT22;45905;50.570;10.428;2023-02-15T00:10:01;0.20;99.90
60033;DHT22;45905;50.570;10.428;2023-02-15T00:12:28;0.20;99.90
60033;DHT22;45905;50.570;10.428;2023-02-15T00:14:55;0.20;99.90
60033;DHT22;45905;50.570;10.428;2023-02-15T00:17:23;0.20;99.90
60033;DHT22;45905;50.570;10.428;2023-02-15T00:19:50;0.10;99.90
60033;DHT22;45905;50.570;10.428;2023-02-15T00:22:17;0.10;99.90
60033;DHT22;45905;50.570;10.428;2023-02-15T00:24:44;-0.20;99.90
60033;DHT22;45905;50.570;10.428;2023-02-15T00:27:11;-0.10;99.90
60033;DHT22;45905;50.570;10.428;2023-02-15T00:29:38;-0.10;99.90
60033;DHT22;45905;50.570;10.428;2023-02-15T00:32:06;-0.20;99.90
60033;DHT22;45905;50.570;10.428;2023-02-15T00:34:33;-0.10;99.90
60033;DHT22;45905;50.570;10.428;2023-02-15T00:37:00;-0.20;99.90
60033;DHT22;45905;50.570;10.428;2023-02-15T00:39:27;0.10;99.90
60033;DHT22;45905;50.570;10.428;2023-02-15T00:41:55;-0.20;99.90
60033;DHT22;45905;50.570;10.428;2023-02-15T00:44:22;0.30;99.90
60033;DHT22;45905;50.570;10.428;2023-02-15T00:46:49;0.10;99.90
60033;DHT22;45905;50.570;10.428;2023-02-15T00:49:17;-0.10;99.90
60033;DHT22;45905;50.570;10.428;2023-02-15T00:51:44;0.20;99.90
60033;DHT22;45905;50.570;10.428;2023-02-15T00:54:11;-0.10;99.90
60033;DHT22;45905;50.570;10.428;2023-02-15T00:56:38;-0.10;99.90
60033;DHT22;45905;50.570;10.428;2023-02-15T00:59:05;-0.20;99.90
60033;DHT22;45905;50.570;10.428;2023-02-15T01:01:32;0.00;99.90
60033;DHT22;45905;50.570;10.428;2023-02-15T01:03:59;-0.20;99.90
60033;DHT22;45905;50.570;10.428;2023-02-15T01:06:28;-0.30;99.90
60033;DHT22;45905;50.570;10.428;2023-02-15T01:08:55;-0.20;99.90
60033;DHT22;45905;50.570;10.428;2023-02-15T01:11:23;-0.20;99.90
60033;DHT22;45905;50.570;10.428;2023-02-15T01:13:56;-0.20;99.90
60033;DHT22;45905;50.570;10.428;2023-02-15T01:16:26;-0.10;99.90
60033;DHT22;45905;50.570;10.428;2023-02-15T01:18:55;-0.20;99.90
60033;DHT22;45905;50.570;10.428;2023-02-15T01:21:24;-0.30;99.90
60033;DHT22;45905;50.570;10.428;2023-02-15T01:23:53;-0.30;99.90
60033;DHT22;45905;50.570;10.428;2023-02-15T01:26:20;-0.30;99.90
60033;DHT22;45905;50.570;10.428;2023-02-15T01:28:48;-0.30;99.90
60033;DHT22;45905;50.570;10.428;2023-02-15T01:31:17;-0.10;99.90
60033;DHT22;45905;50.570;10.428;2023-02-15T01:33:47;-0.10;99.90
60033;DHT22;45905;50.570;10.428;2023-02-15T01:36:15;-0.30;99.90
60033;DHT22;45905;50.570;10.428;2023-02-15T01:38:44;-0.30;99.90
60033;DHT22;45905;50.570;10.428;2023-02-15T01:41:12;-0.10;99.90
60033;DHT22;45905;50.570;10.428;2023-02-15T01:43:59;-0.30;99.90
60033;DHT22;45905;50.570;10.428;2023-02-15T01:46:33;-0.40;99.90
60033;DHT22;45905;50.570;10.428;2023-02-15T01:49:12;-0.40;99.90
60033;DHT22;45905;50.570;10.428;2023-02-15T01:51:45;-0.50;99.90
60033;DHT22;45905;50.570;10.428;2023-02-15T01:54:27;-0.50;99.90
60033;DHT22;45905;50.570;10.428;2023-02-15T01:57:11;-0.10;99.90
60033;DHT22;45905;50.570;10.428;2023-02-15T01:59:42;-0.50;99.90
60033;DHT22;45905;50.570;10.428;2023-02-15T02:02:14;-0.40;99.90
60033;DHT22;45905;50.570;10.428;2023-02-15T02:04:48;-0.50;99.90
60033;DHT22;45905;50.570;10.428;2023-02-15T02:07:20;-0.50;99.90
60033;DHT22;45905;50.570;10.428;2023-02-15T02:09:51;-0.50;99.90
60033;DHT22;45905;50.570;10.428;2023-02-15T02:12:23;-0.50;99.90
60033;DHT22;45905;50.570;10.428;2023-02-15T02:14:52;-0.50;99.90
60033;DHT22;45905;50.570;10.428;2023-02-15T02:32:44;-0.60;99.90
60033;DHT22;45905;50.570;10.428;2023-02-15T02:38:45;-0.50;99.90
60033;DHT22;45905;50.570;10.428;2023-02-15T02:44:31;-0.50;99.90
60033;DHT22;45905;50.570;10.428;2023-02-15T02:47:29;-0.40;99.90
60033;DHT22;45905;50.570;10.428;2023-02-15T02:50:22;-0.40;99.90
60033;DHT22;45905;50.570;10.428;2023-02-15T02:52:54;-0.50;99.90
60033;DHT22;45905;50.570;10.428;2023-02-15T02:55:55;-0.40;99.90
60033;DHT22;45905;50.570;10.428;2023-02-15T02:58:39;-0.50;99.90
60033;DHT22;45905;50.570;10.428;2023-02-15T03:01:24;-0.50;99.90
60033;DHT22;45905;50.570;10.428;2023-02-15T03:03:59;-0.40;99.90
60033;DHT22;45905;50.570;10.428;2023-02-15T03:07:19;0.00;99.90
60033;DHT22;45905;50.570;10.428;2023-02-15T03:09:39;-0.50;99.90
60033;DHT22;45905;50.570;10.428;2023-02-15T03:12:25;-0.40;99.90
60033;DHT22;45905;50.570;10.428;2023-02-15T03:15:09;-0.40;99.90
60033;DHT22;45905;50.570;10.428;2023-02-15T03:17:43;-0.40;99.90
60033;DHT22;45905;50.570;10.428;2023-02-15T03:20:22;-0.40;99.90
60033;DHT22;45905;50.570;10.428;2023-02-15T03:23:18;-0.40;99.90
60033;DHT22;45905;50.570;10.428;2023-02-15T03:25:52;-0.40;99.90
60033;DHT22;45905;50.570;10.428;2023-02-15T03:31:07;-0.40;99.90
60033;DHT22;45905;50.570;10.428;2023-02-15T03:33:53;-0.30;99.90
60033;DHT22;45905;50.570;10.428;2023-02-15T03:36:44;-0.50;99.90
60033;DHT22;45905;50.570;10.428;2023-02-15T03:39:34;-0.50;99.90
60033;DHT22;45905;50.570;10.428;2023-02-15T03:42:16;-0.50;99.90
60033;DHT22;45905;50.570;10.428;2023-02-15T03:44:56;-0.50;99.90
60033;DHT22;45905;50.570;10.428;2023-02-15T03:47:30;-0.50;99.90
60033;DHT22;45905;50.570;10.428;2023-02-15T03:53:00;-0.50;99.90
60033;DHT22;45905;50.570;10.428;2023-02-15T03:55:33;-0.60;99.90
60033;DHT22;45905;50.570;10.428;2023-02-15T03:58:01;-0.60;99.90
60033;DHT22;45905;50.570;10.428;2023-02-15T04:00:58;-0.60;99.90
60033;DHT22;45905;50.570;10.428;2023-02-15T04:03:52;-0.60;99.90
60033;DHT22;45905;50.570;10.428;2023-02-15T04:06:24;-0.70;99.90
60033;DHT22;45905;50.570;10.428;2023-02-15T04:08:51;-0.60;99.90
60033;DHT22;45905;50.570;10.428;2023-02-15T04:11:36;-0.70;99.90
60033;DHT22;45905;50.570;10.428;2023-02-15T04:14:03;-0.70;99.90
60033;DHT22;45905;50.570;10.428;2023-02-15T04:16:51;-0.70;99.90
60033;DHT22;45905;50.570;10.428;2023-02-15T04:19:18;-0.70;99.90
60033;DHT22;45905;50.570;10.428;2023-02-15T04:22:04;-0.80;99.90
60033;DHT22;45905;50.570;10.428;2023-02-15T04:24:49;-0.70;99.90
60033;DHT22;45905;50.570;10.428;2023-02-15T04:27:35;-0.90;99.90
60033;DHT22;45905;50.570;10.428;2023-02-15T04:30:04;-0.90;99.90
60033;DHT22;45905;50.570;10.428;2023-02-15T04:32:32;-0.90;99.90
60033;DHT22;45905;50.570;10.428;2023-02-15T04:35:00;-0.80;99.90
60033;DHT22;45905;50.570;10.428;2023-02-15T04:37:27;-0.90;99.90
60033;DHT22;45905;50.570;10.428;2023-02-15T04:39:55;-0.90;99.90
60033;DHT22;45905;50.570;10.428;2023-02-15T04:42:22;-0.50;99.90
60033;DHT22;45905;50.570;10.428;2023-02-15T04:44:49;-0.90;99.90
60033;DHT22;45905;50.570;10.428;2023-02-15T04:47:16;-0.90;99.90
60033;DHT22;45905;50.570;10.428;2023-02-15T04:49:43;-0.80;99.90
60033;DHT22;45905;50.570;10.428;2023-02-15T04:52:10;-0.70;99.90
60033;DHT22;45905;50.570;10.428;2023-02-15T04:54:37;-0.80;99.90
60033;DHT22;45905;50.570;10.428;2023-02-15T04:57:05;-0.80;99.90
60033;DHT22;45905;50.570;10.428;2023-02-15T04:59:33;-0.60;99.90
60033;DHT22;45905;50.570;10.428;2023-02-15T05:02:00;-0.80;99.90
60033;DHT22;45905;50.570;10.428;2023-02-15T05:04:27;-0.40;99.90
60033;DHT22;45905;50.570;10.428;2023-02-15T05:06:54;-0.80;99.90
60033;DHT22;45905;50.570;10.428;2023-02-15T05:09:21;-0.80;99.90
60033;DHT22;45905;50.570;10.428;2023-02-15T05:11:48;-0.80;99.90
60033;DHT22;45905;50.570;10.428;2023-02-15T05:14:16;-0.60;99.90
60033;DHT22;45905;50.570;10.428;2023-02-15T05:16:43;-0.80;99.90
60033;DHT22;45905;50.570;10.428;2023-02-15T05:19:10;-0.80;99.90
60033;DHT22;45905;50.570;10.428;2023-02-15T05:21:37;-0.80;99.90
60033;DHT22;45905;50.570;10.428;2023-02-15T05:24:05;-0.80;99.90
60033;DHT22;45905;50.570;10.428;2023-02-15T05:26:52;-0.80;99.90
60033;DHT22;45905;50.570;10.428;2023-02-15T05:29:38;-0.80;99.90
60033;DHT22;45905;50.570;10.428;2023-02-15T05:32:05;-0.70;99.90
60033;DHT22;45905;50.570;10.428;2023-02-15T05:34:32;-0.60;99.90
60033;DHT22;45905;50.570;10.428;2023-02-15T05:36:59;-0.80;99.90
60033;DHT22;45905;50.570;10.428;2023-02-15T05:39:27;-0.90;99.90
60033;DHT22;45905;50.570;10.428;2023-02-15T05:41:54;-0.90;99.90
60033;DHT22;45905;50.570;10.428;2023-02-15T05:44:21;-0.90;99.90
60033;DHT22;45905;50.570;10.428;2023-02-15T05:46:48;-0.90;99.90
60033;DHT22;45905;50.570;10.428;2023-02-15T05:49:15;-0.90;99.90
60033;DHT22;45905;50.570;10.428;2023-02-15T05:51:42;-0.90;99.90
60033;DHT22;45905;50.570;10.428;2023-02-15T05:54:09;-0.90;99.90
60033;DHT22;45905;50.570;10.428;2023-02-15T05:56:36;-1.00;99.90
60033;DHT22;45905;50.570;10.428;2023-02-15T05:59:03;-1.00;99.90
60033;DHT22;45905;50.570;10.428;2023-02-15T06:01:30;-0.90;99.90
60033;DHT22;45905;50.570;10.428;2023-02-15T06:03:57;-0.90;99.90
60033;DHT22;45905;50.570;10.428;2023-02-15T06:06:25;-0.80;99.90
60033;DHT22;45905;50.570;10.428;2023-02-15T06:08:52;-0.90;99.90
60033;DHT22;45905;50.570;10.428;2023-02-15T06:11:19;-0.90;99.90
60033;DHT22;45905;50.570;10.428;2023-02-15T06:13:46;-1.00;99.90
60033;DHT22;45905;50.570;10.428;2023-02-15T06:16:13;-0.80;99.90
60033;DHT22;45905;50.570;10.428;2023-02-15T06:18:42;-0.90;99.90
60033;DHT22;45905;50.570;10.428;2023-02-15T06:21:09;-0.90;99.90
60033;DHT22;45905;50.570;10.428;2023-02-15T06:23:37;-0.90;99.90
60033;DHT22;45905;50.570;10.428;2023-02-15T06:26:04;-0.90;99.90
60033;DHT22;45905;50.570;10.428;2023-02-15T06:28:31;-0.90;99.90
60033;DHT22;45905;50.570;10.428;2023-02-15T06:30:58;-0.90;99.90
60033;DHT22;45905;50.570;10.428;2023-02-15T06:33:25;-0.90;99.90
60033;DHT22;45905;50.570;10.428;2023-02-15T06:35:53;-0.90;99.90
60033;DHT22;45905;50.570;10.428;2023-02-15T06:38:20;-0.90;99.90
60033;DHT22;45905;50.570;10.428;2023-02-15T06:40:47;-0.90;99.90
60033;DHT22;45905;50.570;10.428;2023-02-15T06:43:14;-0.90;99.90
60033;DHT22;45905;50.570;10.428;2023-02-15T06:45:41;-0.90;99.90
60033;DHT22;45905;50.570;10.428;2023-02-15T06:48:09;-0.90;99.90
60033;DHT22;45905;50.570;10.428;2023-02-15T06:50:37;-0.90;99.90
60033;DHT22;45905;50.570;10.428;2023-02-15T06:53:05;-0.80;99.90
60033;DHT22;45905;50.570;10.428;2023-02-15T06:55:32;-0.90;99.90
60033;DHT22;45905;50.570;10.428;2023-02-15T06:57:59;-0.90;99.90
60033;DHT22;45905;50.570;10.428;2023-02-15T07:00:26;-0.90;99.90
60033;DHT22;45905;50.570;10.428;2023-02-15T07:02:57;-0.80;99.90
60033;DHT22;45905;50.570;10.428;2023-02-15T07:05:26;-0.90;99.90
60033;DHT22;45905;50.570;10.428;2023-02-15T07:07:59;-0.70;99.90
60033;DHT22;45905;50.570;10.428;2023-02-15T07:10:27;-0.70;99.90
60033;DHT22;45905;50.570;10.428;2023-02-15T07:12:55;-0.80;99.90
60033;DHT22;45905;50.570;10.428;2023-02-15T07:15:22;-0.80;99.90
60033;DHT22;45905;50.570;10.428;2023-02-15T07:17:50;-0.70;99.90
60033;DHT22;45905;50.570;10.428;2023-02-15T07:20:22;-0.80;99.90
60033;DHT22;45905;50.570;10.428;2023-02-15T07:22:50;-0.60;99.90
60033;DHT22;45905;50.570;10.428;2023-02-15T07:25:17;-0.80;99.90
60033;DHT22;45905;50.570;10.428;2023-02-15T07:27:45;-0.80;99.90
60033;DHT22;45905;50.570;10.428;2023-02-15T07:30:15;-0.80;99.90
60033;DHT22;45905;50.570;10.428;2023-02-15T07:32:43;-0.80;99.90
60033;DHT22;45905;50.570;10.428;2023-02-15T07:35:32;-0.80;99.90
60033;DHT22;45905;50.570;10.428;2023-02-15T07:38:00;-0.80;99.90
60033;DHT22;45905;50.570;10.428;2023-02-15T07:40:27;-0.70;99.90
60033;DHT22;45905;50.570;10.428;2023-02-15T07:42:57;-0.70;99.90
60033;DHT22;45905;50.570;10.428;2023-02-15T07:45:25;-0.50;99.90
60033;DHT22;45905;50.570;10.428;2023-02-15T07:47:53;-0.70;99.90
60033;DHT22;45905;50.570;10.428;2023-02-15T07:50:20;-0.40;99.90
60033;DHT22;45905;50.570;10.428;2023-02-15T07:52:48;-0.10;99.90
60033;DHT22;45905;50.570;10.428;2023-02-15T07:55:15;-0.60;99.90
60033;DHT22;45905;50.570;10.428;2023-02-15T07:57:43;-0.60;99.90
60033;DHT22;45905;50.570;10.428;2023-02-15T08:00:13;-0.60;99.90
60033;DHT22;45905;50.570;10.428;2023-02-15T08:02:42;-0.60;99.90
60033;DHT22;45905;50.570;10.428;2023-02-15T08:05:15;0.10;99.90
60033;DHT22;45905;50.570;10.428;2023-02-15T08:07:43;-0.50;99.90
60033;DHT22;45905;50.570;10.428;2023-02-15T08:10:10;-0.40;99.90
60033;DHT22;45905;50.570;10.428;2023-02-15T08:13:00;-0.50;99.90
60033;DHT22;45905;50.570;10.428;2023-02-15T08:15:32;-0.50;99.90
60033;DHT22;45905;50.570;10.428;2023-02-15T08:17:59;-0.50;99.90
60033;DHT22;45905;50.570;10.428;2023-02-15T08:20:26;-0.40;99.90
60033;DHT22;45905;50.570;10.428;2023-02-15T08:22:53;-0.40;99.90
60033;DHT22;45905;50.570;10.428;2023-02-15T08:25:20;-0.40;99.90
60033;DHT22;45905;50.570;10.428;2023-02-15T08:27:49;-0.40;99.90
60033;DHT22;45905;50.570;10.428;2023-02-15T08:30:17;-0.40;99.90
60033;DHT22;45905;50.570;10.428;2023-02-15T08:32:44;-0.30;99.90
60033;DHT22;45905;50.570;10.428;2023-02-15T08:35:11;-0.40;99.90
60033;DHT22;45905;50.570;10.428;2023-02-15T08:37:38;-0.40;99.90
60033;DHT22;45905;50.570;10.428;2023-02-15T08:40:06;-0.30;99.90
60033;DHT22;45905;50.570;10.428;2023-02-15T08:42:34;-0.30;99.90
60033;DHT22;45905;50.570;10.428;2023-02-15T08:45:01;-0.30;99.90
60033;DHT22;45905;50.570;10.428;2023-02-15T08:47:28;-0.30;99.90
60033;DHT22;45905;50.570;10.428;2023-02-15T08:49:55;-0.20;99.90
60033;DHT22;45905;50.570;10.428;2023-02-15T08:52:22;-0.10;99.90
60033;DHT22;45905;50.570;10.428;2023-02-15T08:54:49;-0.20;99.90
60033;DHT22;45905;50.570;10.428;2023-02-15T08:57:16;-0.20;99.90
60033;DHT22;45905;50.570;10.428;2023-02-15T08:59:44;-0.20;99.90
60033;DHT22;45905;50.570;10.428;2023-02-15T09:02:11;-0.10;99.90
60033;DHT22;45905;50.570;10.428;2023-02-15T09:04:38;-0.20;99.90
60033;DHT22;45905;50.570;10.428;2023-02-15T09:07:05;-0.20;99.90
60033;DHT22;45905;50.570;10.428;2023-02-15T09:09:32;-0.20;99.90
60033;DHT22;45905;50.570;10.428;2023-02-15T09:11:59;-0.10;99.90
60033;DHT22;45905;50.570;10.428;2023-02-15T09:14:27;0.30;99.90
60033;DHT22;45905;50.570;10.428;2023-02-15T09:16:54;-0.20;99.90
60033;DHT22;45905;50.570;10.428;2023-02-15T09:19:23;-0.20;99.90
60033;DHT22;45905;50.570;10.428;2023-02-15T09:21:50;-0.10;99.90
60033;DHT22;45905;50.570;10.428;2023-02-15T09:24:18;-0.10;99.90
60033;DHT22;45905;50.570;10.428;2023-02-15T09:26:47;-0.10;99.90
60033;DHT22;45905;50.570;10.428;2023-02-15T09:29:16;0.00;99.90
60033;DHT22;45905;50.570;10.428;2023-02-15T09:31:46;0.10;99.90
60033;DHT22;45905;50.570;10.428;2023-02-15T09:34:18;0.30;99.90
60033;DHT22;45905;50.570;10.428;2023-02-15T09:36:47;0.20;99.90
60033;DHT22;45905;50.570;10.428;2023-02-15T09:39:25;0.20;99.90
60033;DHT22;45905;50.570;10.428;2023-02-15T09:54:40;0.30;99.90
60033;DHT22;45905;50.570;10.428;2023-02-15T09:57:03;0.40;99.90
60033;DHT22;45905;50.570;10.428;2023-02-15T10:18:14;0.60;99.90
60033;DHT22;45905;50.570;10.428;2023-02-15T10:26:20;0.70;99.90
60033;DHT22;45905;50.570;10.428;2023-02-15T10:34:45;0.70;99.90
60033;DHT22;45905;50.570;10.428;2023-02-15T10:37:49;0.70;99.90
60033;DHT22;45905;50.570;10.428;2023-02-15T10:44:10;0.60;99.90
60033;DHT22;45905;50.570;10.428;2023-02-15T10:47:07;0.10;99.90
60033;DHT22;45905;50.570;10.428;2023-02-15T11:02:07;0.70;99.90
60033;DHT22;45905;50.570;10.428;2023-02-15T11:08:16;0.80;99.90
60033;DHT22;45905;50.570;10.428;2023-02-15T11:10:49;0.80;99.90
60033;DHT22;45905;50.570;10.428;2023-02-15T11:13:23;0.90;99.90
60033;DHT22;45905;50.570;10.428;2023-02-15T11:16:02;0.90;99.90
60033;DHT22;45905;50.570;10.428;2023-02-15T11:18:37;0.90;99.90
60033;DHT22;45905;50.570;10.428;2023-02-15T11:23:50;0.90;99.90
60033;DHT22;45905;50.570;10.428;2023-02-15T11:26:34;1.10;99.90
60033;DHT22;45905;50.570;10.428;2023-02-15T11:31:59;1.00;99.90
60033;DHT22;45905;50.570;10.428;2023-02-15T11:34:35;1.00;99.90
60033;DHT22;45905;50.570;10.428;2023-02-15T11:37:18;1.20;99.90
60033;DHT22;45905;50.570;10.428;2023-02-15T11:39:49;0.90;99.90
60033;DHT22;45905;50.570;10.428;2023-02-15T11:42:21;0.90;99.90
60033;DHT22;45905;50.570;10.428;2023-02-15T11:45:04;0.90;99.90
60033;DHT22;45905;50.570;10.428;2023-02-15T11:47:43;0.80;99.90
60033;DHT22;45905;50.570;10.428;2023-02-15T11:50:21;1.40;99.90
60033;DHT22;45905;50.570;10.428;2023-02-15T11:53:01;0.90;99.90
60033;DHT22;45905;50.570;10.428;2023-02-15T11:55:32;0.70;99.90
60033;DHT22;45905;50.570;10.428;2023-02-15T11:58:21;0.80;99.90
60033;DHT22;45905;50.570;10.428;2023-02-15T12:00:53;0.70;99.90
60033;DHT22;45905;50.570;10.428;2023-02-15T12:03:54;0.80;99.90
60033;DHT22;45905;50.570;10.428;2023-02-15T12:06:34;0.80;99.90
60033;DHT22;45905;50.570;10.428;2023-02-15T12:09:34;0.80;99.90
60033;DHT22;45905;50.570;10.428;2023-02-15T12:12:25;0.80;99.90
60033;DHT22;45905;50.570;10.428;2023-02-15T12:14:56;0.80;99.90
60033;DHT22;45905;50.570;10.428;2023-02-15T12:17:39;0.80;99.90
60033;DHT22;45905;50.570;10.428;2023-02-15T12:23:01;0.80;99.90
60033;DHT22;45905;50.570;10.428;2023-02-15T12:28:26;0.80;99.90
60033;DHT22;45905;50.570;10.428;2023-02-15T12:31:06;0.70;99.90
60033;DHT22;45905;50.570;10.428;2023-02-15T12:33:43;0.70;99.90
60033;DHT22;45905;50.570;10.428;2023-02-15T12:39:25;0.70;99.90
60033;DHT22;45905;50.570;10.428;2023-02-15T12:44:52;0.90;99.90
60033;DHT22;45905;50.570;10.428;2023-02-15T12:47:20;0.70;99.90
60033;DHT22;45905;50.570;10.428;2023-02-15T12:50:15;0.80;99.90
60033;DHT22;45905;50.570;10.428;2023-02-15T12:52:51;0.80;99.90
60033;DHT22;45905;50.570;10.428;2023-02-15T12:55:33;0.80;99.90
60033;DHT22;45905;50.570;10.428;2023-02-15T12:58:18;0.80;99.90
60033;DHT22;45905;50.570;10.428;2023-02-15T13:01:20;0.80;99.90
60033;DHT22;45905;50.570;10.428;2023-02-15T13:04:06;0.80;99.90
60033;DHT22;45905;50.570;10.428;2023-02-15T13:06:51;0.90;99.90
60033;DHT22;45905;50.570;10.428;2023-02-15T13:09:38;1.10;99.90
60033;DHT22;45905;50.570;10.428;2023-02-15T13:12:28;1.10;99.90
60033;DHT22;45905;50.570;10.428;2023-02-15T13:14:58;1.00;99.90
60033;DHT22;45905;50.570;10.428;2023-02-15T13:17:32;1.00;99.90
60033;DHT22;45905;50.570;10.428;2023-02-15T13:20:04;1.00;99.90
60033;DHT22;45905;50.570;10.428;2023-02-15T13:22:43;0.90;99.90
60033;DHT22;45905;50.570;10.428;2023-02-15T13:25:27;1.00;99.90
60033;DHT22;45905;50.570;10.428;2023-02-15T13:28:02;1.00;99.90
60033;DHT22;45905;50.570;10.428;2023-02-15T13:30:50;1.00;99.90
60033;DHT22;45905;50.570;10.428;2023-02-15T13:33:33;1.10;99.90
60033;DHT22;45905;50.570;10.428;2023-02-15T13:36:25;1.00;99.90
60033;DHT22;45905;50.570;10.428;2023-02-15T13:47:53;0.90;99.90
60033;DHT22;45905;50.570;10.428;2023-02-15T14:01:58;1.20;99.90
60033;DHT22;45905;50.570;10.428;2023-02-15T14:10:49;1.30;99.90
60033;DHT22;45905;50.570;10.428;2023-02-15T14:19:11;1.30;99.90
60033;DHT22;45905;50.570;10.428;2023-02-15T14:24:44;1.40;99.90
60033;DHT22;45905;50.570;10.428;2023-02-15T14:27:42;1.30;99.90
60033;DHT22;45905;50.570;10.428;2023-02-15T14:30:31;1.40;99.90
60033;DHT22;45905;50.570;10.428;2023-02-15T14:33:08;1.40;99.90
60033;DHT22;45905;50.570;10.428;2023-02-15T14:35:42;1.40;99.90
60033;DHT22;45905;50.570;10.428;2023-02-15T14:38:15;1.40;99.90
60033;DHT22;45905;50.570;10.428;2023-02-15T14:41:07;1.50;99.90
60033;DHT22;45905;50.570;10.428;2023-02-15T14:52:11;1.40;99.90
60033;DHT22;45905;50.570;10.428;2023-02-15T14:59:57;1.50;99.90
60033;DHT22;45905;50.570;10.428;2023-02-15T15:02:42;1.50;99.90
60033;DHT22;45905;50.570;10.428;2023-02-15T15:05:37;1.40;99.90
60033;DHT22;45905;50.570;10.428;2023-02-15T15:08:42;1.40;99.90
60033;DHT22;45905;50.570;10.428;2023-02-15T15:14:09;1.20;99.90
60033;DHT22;45905;50.570;10.428;2023-02-15T15:16:57;1.30;99.90
60033;DHT22;45905;50.570;10.428;2023-02-15T15:22:23;1.40;99.90
60033;DHT22;45905;50.570;10.428;2023-02-15T15:27:44;1.20;99.90
60033;DHT22;45905;50.570;10.428;2023-02-15T15:48:35;1.20;99.90
60033;DHT22;45905;50.570;10.428;2023-02-15T15:51:11;1.20;99.90
60033;DHT22;45905;50.570;10.428;2023-02-15T15:53:46;0.70;99.90
60033;DHT22;45905;50.570;10.428;2023-02-15T15:56:22;1.10;99.90
60033;DHT22;45905;50.570;10.428;2023-02-15T15:58:56;1.20;99.90
60033;DHT22;45905;50.570;10.428;2023-02-15T16:01:28;1.20;99.90
60033;DHT22;45905;50.570;10.428;2023-02-15T16:03:59;1.20;99.90
60033;DHT22;45905;50.570;10.428;2023-02-15T16:06:38;1.20;99.90
60033;DHT22;45905;50.570;10.428;2023-02-15T16:12:04;1.20;99.90
60033;DHT22;45905;50.570;10.428;2023-02-15T16:14:41;1.20;99.90
60033;DHT22;45905;50.570;10.428;2023-02-15T16:17:18;1.20;99.90
60033;DHT22;45905;50.570;10.428;2023-02-15T16:19:53;1.20;99.90
60033;DHT22;45905;50.570;10.428;2023-02-15T16:22:25;1.20;99.90
60033;DHT22;45905;50.570;10.428;2023-02-15T16:25:43;1.20;99.90
60033;DHT22;45905;50.570;10.428;2023-02-15T16:28:11;1.10;99.90
60033;DHT22;45905;50.570;10.428;2023-02-15T16:30:40;1.10;99.90
60033;DHT22;45905;50.570;10.428;2023-02-15T16:33:11;1.10;99.90
60033;DHT22;45905;50.570;10.428;2023-02-15T16:35:52;1.00;99.90
60033;DHT22;45905;50.570;10.428;2023-02-15T16:41:22;0.90;99.90
60033;DHT22;45905;50.570;10.428;2023-02-15T16:43:53;0.80;99.90
60033;DHT22;45905;50.570;10.428;2023-02-15T16:46:41;0.70;99.90
60033;DHT22;45905;50.570;10.428;2023-02-15T16:49:23;0.70;99.90
60033;DHT22;45905;50.570;10.428;2023-02-15T16:52:03;0.60;99.90
60033;DHT22;45905;50.570;10.428;2023-02-15T16:54:33;0.60;99.90
60033;DHT22;45905;50.570;10.428;2023-02-15T16:57:02;0.60;99.90
60033;DHT22;45905;50.570;10.428;2023-02-15T16:59:39;0.60;99.90
60033;DHT22;45905;50.570;10.428;2023-02-15T17:02:21;0.60;99.90
60033;DHT22;45905;50.570;10.428;2023-02-15T17:05:18;0.60;99.90
60033;DHT22;45905;50.570;10.428;2023-02-15T17:08:11;0.60;99.90
60033;DHT22;45905;50.570;10.428;2023-02-15T17:10:41;0.60;99.90
60033;DHT22;45905;50.570;10.428;2023-02-15T17:13:16;0.70;99.90
60033;DHT22;45905;50.570;10.428;2023-02-15T17:21:17;0.60;99.90
60033;DHT22;45905;50.570;10.428;2023-02-15T17:23:49;0.50;99.90
60033;DHT22;45905;50.570;10.428;2023-02-15T17:28:56;0.50;99.90
60033;DHT22;45905;50.570;10.428;2023-02-15T17:31:31;0.50;99.90
60033;DHT22;45905;50.570;10.428;2023-02-15T17:34:00;0.50;99.90
60033;DHT22;45905;50.570;10.428;2023-02-15T17:36:30;0.50;99.90
60033;DHT22;45905;50.570;10.428;2023-02-15T17:41:26;0.50;99.90
60033;DHT22;45905;50.570;10.428;2023-02-15T17:43:57;0.50;99.90
60033;DHT22;45905;50.570;10.428;2023-02-15T17:46:26;0.50;99.90
60033;DHT22;45905;50.570;10.428;2023-02-15T17:48:59;0.50;99.90
60033;DHT22;45905;50.570;10.428;2023-02-15T17:51:26;0.40;99.90
60033;DHT22;45905;50.570;10.428;2023-02-15T17:53:54;0.30;99.90
60033;DHT22;45905;50.570;10.428;2023-02-15T17:56:39;0.40;99.90
60033;DHT22;45905;50.570;10.428;2023-02-15T17:59:06;0.40;99.90
60033;DHT22;45905;50.570;10.428;2023-02-15T18:01:34;0.30;99.90
60033;DHT22;45905;50.570;10.428;2023-02-15T18:04:24;0.40;99.90
60033;DHT22;45905;50.570;10.428;2023-02-15T18:07:12;0.40;99.90
60033;DHT22;45905;50.570;10.428;2023-02-15T18:09:57;0.40;99.90
60033;DHT22;45905;50.570;10.428;2023-02-15T18:12:43;0.40;99.90
60033;DHT22;45905;50.570;10.428;2023-02-15T18:15:10;0.40;99.90
60033;DHT22;45905;50.570;10.428;2023-02-15T18:17:42;0.30;99.90
60033;DHT22;45905;50.570;10.428;2023-02-15T18:20:21;0.30;99.90
60033;DHT22;45905;50.570;10.428;2023-02-15T18:22:51;0.30;99.90
60033;DHT22;45905;50.570;10.428;2023-02-15T18:25:20;0.40;99.90
60033;DHT22;45905;50.570;10.428;2023-02-15T18:27:51;0.60;99.90
60033;DHT22;45905;50.570;10.428;2023-02-15T18:30:22;0.50;99.90
60033;DHT22;45905;50.570;10.428;2023-02-15T18:32:54;0.50;99.90
60033;DHT22;45905;50.570;10.428;2023-02-15T18:35:27;0.30;99.90
60033;DHT22;45905;50.570;10.428;2023-02-15T18:37:58;0.40;99.90
60033;DHT22;45905;50.570;10.428;2023-02-15T18:40:27;0.40;99.90
60033;DHT22;45905;50.570;10.428;2023-02-15T18:42:56;0.40;99.90
60033;DHT22;45905;50.570;10.428;2023-02-15T18:45:27;0.50;99.90
60033;DHT22;45905;50.570;10.428;2023-02-15T18:47:58;0.40;99.90
60033;DHT22;45905;50.570;10.428;2023-02-15T18:50:29;0.40;99.90
60033;DHT22;45905;50.570;10.428;2023-02-15T18:52:58;0.60;99.90
60033;DHT22;45905;50.570;10.428;2023-02-15T18:55:28;0.40;99.90
60033;DHT22;45905;50.570;10.428;2023-02-15T18:57:56;0.50;99.90
60033;DHT22;45905;50.570;10.428;2023-02-15T19:00:25;0.30;99.90
60033;DHT22;45905;50.570;10.428;2023-02-15T19:02:55;0.40;99.90
60033;DHT22;45905;50.570;10.428;2023-02-15T19:05:24;0.40;99.90
60033;DHT22;45905;50.570;10.428;2023-02-15T19:07:57;0.20;99.90
60033;DHT22;45905;50.570;10.428;2023-02-15T19:10:27;0.40;99.90
60033;DHT22;45905;50.570;10.428;2023-02-15T19:12:56;0.30;99.90
60033;DHT22;45905;50.570;10.428;2023-02-15T19:15:27;0.40;99.90
60033;DHT22;45905;50.570;10.428;2023-02-15T19:17:58;0.40;99.90
60033;DHT22;45905;50.570;10.428;2023-02-15T19:20:30;0.30;99.90